sensor_id;sensor_type;location;lat;lon;timestamp;pressure;altitude;pressure_sealevel;temperature;humidity
39267;BME280;24967;51.154;13.812;2023-09-30T00:01:26;99874.75;;;20.98;65.33
39267;BME280;24967;51.154;13.812;2023-09-30T00:03:53;99873.47;;;21.14;64.83
39267;BME280;24967;51.154;13.812;2023-09-30T00:06:20;99876.63;;;20.97;65.36
39267;BME280;24967;51.154;13.812;2023-09-30T00:08:46;99874.09;;;21.02;65.18
39267;BME280;24967;51.154;13.812;2023-09-30T00:11:16;99883.06;;;20.83;65.73
39267;BME280;24967;51.154;13.812;2023-09-30T00:13:43;99876.44;;;20.52;67.25
39267;BME280;24967;51.154;13.812;2023-09-30T00:16:11;99885.13;;;20.48;68.02
39267;BME280;24967;51.154;13.812;2023-09-30T00:18:37;99887.97;;;20.06;70.96
39267;BME280;24967;51.154;13.812;2023-09-30T00:21:04;99899.59;;;20.00;71.81
39267;BME280;24967;51.154;13.812;2023-09-30T00:23:31;99896.91;;;20.27;71.01
39267;BME280;24967;51.154;13.812;2023-09-30T00:25:58;99902.31;;;20.20;71.64
39267;BME280;24967;51.154;13.812;2023-09-30T00:28:26;99902.88;;;19.96;74.00
39267;BME280;24967;51.154;13.812;2023-09-30T00:30:53;99903.28;;;19.99;74.53
39267;BME280;24967;51.154;13.812;2023-09-30T00:33:20;99905.38;;;19.97;75.41
39267;BME280;24967;51.154;13.812;2023-09-30T00:35:46;99904.56;;;20.03;75.32
39267;BME280;24967;51.154;13.812;2023-09-30T00:38:13;99903.13;;;20.14;74.67
39267;BME280;24967;51.154;13.812;2023-09-30T00:40:47;99902.69;;;20.04;75.70
39267;BME280;24967;51.154;13.812;2023-09-30T00:43:18;99901.63;;;19.98;76.81
39267;BME280;24967;51.154;13.812;2023-09-30T00:45:46;99912.19;;;19.86;78.22
39267;BME280;24967;51.154;13.812;2023-09-30T00:48:13;99920.09;;;19.53;81.06
39267;BME280;24967;51.154;13.812;2023-09-30T00:50:40;99930.38;;;19.71;79.94
39267;BME280;24967;51.154;13.812;2023-09-30T00:53:07;99930.56;;;19.35;81.95
39267;BME280;24967;51.154;13.812;2023-09-30T00:55:33;99934.59;;;18.89;84.72
39267;BME280;24967;51.154;13.812;2023-09-30T00:58:00;99938.34;;;18.88;85.62
39267;BME280;24967;51.154;13.812;2023-09-30T01:00:27;99943.81;;;19.02;84.06
39267;BME280;24967;51.154;13.812;2023-09-30T01:02:55;99939.72;;;18.63;86.48
39267;BME280;24967;51.154;13.812;2023-09-30T01:05:22;99950.75;;;18.46;88.11
39267;BME280;24967;51.154;13.812;2023-09-30T01:07:48;99949.59;;;18.34;89.18
39267;BME280;24967;51.154;13.812;2023-09-30T01:10:15;99954.41;;;18.02;92.73
39267;BME280;24967;51.154;13.812;2023-09-30T01:12:42;99954.66;;;18.22;91.41
39267;BME280;24967;51.154;13.812;2023-09-30T01:15:09;99955.44;;;18.38;89.81
39267;BME280;24967;51.154;13.812;2023-09-30T01:17:35;99956.97;;;18.47;88.65
39267;BME280;24967;51.154;13.812;2023-09-30T01:23:25;99963.97;;;17.90;90.90
39267;BME280;24967;51.154;13.812;2023-09-30T01:25:52;99957.59;;;17.76;89.18
39267;BME280;24967;51.154;13.812;2023-09-30T01:28:19;99961.97;;;17.77;88.72
39267;BME280;24967;51.154;13.812;2023-09-30T01:30:45;99971.03;;;17.61;88.87
39267;BME280;24967;51.154;13.812;2023-09-30T01:33:12;99979.28;;;17.60;87.94
39267;BME280;24967;51.154;13.812;2023-09-30T01:35:39;99984.00;;;17.58;86.85
39267;BME280;24967;51.154;13.812;2023-09-30T01:38:05;99983.28;;;17.49;86.21
39267;BME280;24967;51.154;13.812;2023-09-30T01:40:33;100000.22;;;17.50;85.61
39267;BME280;24967;51.154;13.812;2023-09-30T01:43:00;100002.34;;;17.54;84.09
39267;BME280;24967;51.154;13.812;2023-09-30T01:45:27;100002.81;;;17.43;83.99
39267;BME280;24967;51.154;13.812;2023-09-30T01:47:53;99991.50;;;17.48;83.45
39267;BME280;24967;51.154;13.812;2023-09-30T01:50:20;100012.53;;;17.44;83.99
39267;BME280;24967;51.154;13.812;2023-09-30T01:52:46;100007.81;;;17.46;84.43
39267;BME280;24967;51.154;13.812;2023-09-30T01:55:13;100011.31;;;17.32;85.07
39267;BME280;24967;51.154;13.812;2023-09-30T01:57:41;100013.00;;;17.48;83.72
39267;BME280;24967;51.154;13.812;2023-09-30T02:00:08;100015.97;;;17.38;84.42
39267;BME280;24967;51.154;13.812;2023-09-30T02:02:35;100019.94;;;17.42;83.89
39267;BME280;24967;51.154;13.812;2023-09-30T02:05:01;100016.44;;;17.42;84.23
39267;BME280;24967;51.154;13.812;2023-09-30T02:07:29;100019.03;;;17.50;84.05
39267;BME280;24967;51.154;13.812;2023-09-30T02:09:57;100024.13;;;17.59;83.23
39267;BME280;24967;51.154;13.812;2023-09-30T02:12:24;100024.44;;;17.65;83.29
39267;BME280;24967;51.154;13.812;2023-09-30T02:14:54;100022.94;;;17.77;82.75
39267;BME280;24967;51.154;13.812;2023-09-30T02:17:20;100026.81;;;17.59;83.64
39267;BME280;24967;51.154;13.812;2023-09-30T02:19:48;100031.81;;;17.48;83.85
39267;BME280;24967;51.154;13.812;2023-09-30T02:22:15;100037.34;;;17.31;84.86
39267;BME280;24967;51.154;13.812;2023-09-30T02:24:41;100047.91;;;17.33;85.10
39267;BME280;24967;51.154;13.812;2023-09-30T02:27:08;100043.31;;;17.18;85.88
39267;BME280;24967;51.154;13.812;2023-09-30T02:29:35;100054.41;;;17.01;85.95
39267;BME280;24967;51.154;13.812;2023-09-30T02:32:03;100061.38;;;17.10;84.03
39267;BME280;24967;51.154;13.812;2023-09-30T02:34:30;100052.66;;;17.08;82.94
39267;BME280;24967;51.154;13.812;2023-09-30T02:36:56;100061.19;;;17.11;81.63
39267;BME280;24967;51.154;13.812;2023-09-30T02:39:25;100061.03;;;16.90;81.18
39267;BME280;24967;51.154;13.812;2023-09-30T02:41:52;100064.94;;;16.79;80.56
39267;BME280;24967;51.154;13.812;2023-09-30T02:44:19;100073.59;;;17.12;78.69
39267;BME280;24967;51.154;13.812;2023-09-30T02:46:45;100072.69;;;16.74;78.70
39267;BME280;24967;51.154;13.812;2023-09-30T02:49:13;100083.78;;;16.71;78.97
39267;BME280;24967;51.154;13.812;2023-09-30T02:51:40;100095.50;;;16.78;78.12
39267;BME280;24967;51.154;13.812;2023-09-30T02:54:06;100089.97;;;16.80;77.80
39267;BME280;24967;51.154;13.812;2023-09-30T02:56:33;100082.47;;;16.98;76.57
39267;BME280;24967;51.154;13.812;2023-09-30T02:58:59;100087.22;;;17.11;76.10
39267;BME280;24967;51.154;13.812;2023-09-30T03:01:26;100096.28;;;16.87;76.20
39267;BME280;24967;51.154;13.812;2023-09-30T03:03:53;100101.84;;;17.08;75.87
39267;BME280;24967;51.154;13.812;2023-09-30T03:06:21;100103.50;;;16.86;76.48
39267;BME280;24967;51.154;13.812;2023-09-30T03:08:48;100111.56;;;16.86;76.54
39267;BME280;24967;51.154;13.812;2023-09-30T03:11:15;100106.75;;;17.05;75.84
39267;BME280;24967;51.154;13.812;2023-09-30T03:13:41;100108.47;;;16.98;75.97
39267;BME280;24967;51.154;13.812;2023-09-30T03:16:08;100121.31;;;17.10;75.39
39267;BME280;24967;51.154;13.812;2023-09-30T03:18:35;100116.94;;;16.86;74.75
39267;BME280;24967;51.154;13.812;2023-09-30T03:21:02;100127.59;;;16.63;74.92
39267;BME280;24967;51.154;13.812;2023-09-30T03:23:35;100119.63;;;16.47;75.15
39267;BME280;24967;51.154;13.812;2023-09-30T03:26:04;100128.44;;;16.64;73.45
39267;BME280;24967;51.154;13.812;2023-09-30T03:28:35;100132.38;;;16.45;73.54
39267;BME280;24967;51.154;13.812;2023-09-30T03:31:01;100138.91;;;16.42;72.99
39267;BME280;24967;51.154;13.812;2023-09-30T03:33:30;100146.97;;;16.42;72.31
39267;BME280;24967;51.154;13.812;2023-09-30T03:35:56;100150.41;;;16.28;72.36
39267;BME280;24967;51.154;13.812;2023-09-30T03:38:25;100161.09;;;16.36;72.28
39267;BME280;24967;51.154;13.812;2023-09-30T03:40:53;100168.72;;;16.08;73.42
39267;BME280;24967;51.154;13.812;2023-09-30T03:43:20;100165.50;;;16.21;72.90
39267;BME280;24967;51.154;13.812;2023-09-30T03:45:48;100171.53;;;16.15;72.34
39267;BME280;24967;51.154;13.812;2023-09-30T03:48:15;100171.53;;;16.15;72.70
39267;BME280;24967;51.154;13.812;2023-09-30T03:50:43;100191.47;;;16.20;72.30
39267;BME280;24967;51.154;13.812;2023-09-30T03:53:09;100198.75;;;15.95;73.44
39267;BME280;24967;51.154;13.812;2023-09-30T03:55:37;100198.56;;;15.97;73.43
39267;BME280;24967;51.154;13.812;2023-09-30T03:58:05;100199.41;;;15.89;73.97
39267;BME280;24967;51.154;13.812;2023-09-30T04:00:31;100200.59;;;15.78;74.09
39267;BME280;24967;51.154;13.812;2023-09-30T04:02:58;100205.28;;;15.76;74.68
39267;BME280;24967;51.154;13.812;2023-09-30T04:05:24;100215.84;;;15.78;74.26
39267;BME280;24967;51.154;13.812;2023-09-30T04:07:54;100221.84;;;15.88;73.80
39267;BME280;24967;51.154;13.812;2023-09-30T04:10:21;100213.97;;;15.78;74.02
39267;BME280;24967;51.154;13.812;2023-09-30T04:12:48;100228.41;;;15.69;74.62
39267;BME280;24967;51.154;13.812;2023-09-30T04:15:16;100223.03;;;15.77;74.07
39267;BME280;24967;51.154;13.812;2023-09-30T04:17:43;100229.34;;;15.52;74.83
39267;BME280;24967;51.154;13.812;2023-09-30T04:20:10;100222.00;;;15.54;75.47
39267;BME280;24967;51.154;13.812;2023-09-30T04:22:42;100225.03;;;15.75;74.30
39267;BME280;24967;51.154;13.812;2023-09-30T04:25:14;100222.34;;;15.67;74.29
39267;BME280;24967;51.154;13.812;2023-09-30T04:27:41;100227.50;;;15.61;74.21
39267;BME280;24967;51.154;13.812;2023-09-30T04:30:13;100232.03;;;15.44;75.29
39267;BME280;24967;51.154;13.812;2023-09-30T04:32:42;100238.34;;;15.26;76.50
39267;BME280;24967;51.154;13.812;2023-09-30T04:35:09;100240.78;;;15.03;78.11
39267;BME280;24967;51.154;13.812;2023-09-30T04:37:36;100246.34;;;15.10;78.26
39267;BME280;24967;51.154;13.812;2023-09-30T04:40:04;100246.13;;;15.03;78.36
39267;BME280;24967;51.154;13.812;2023-09-30T04:42:40;100244.44;;;14.86;79.77
39267;BME280;24967;51.154;13.812;2023-09-30T04:45:08;100260.63;;;14.84;80.10
39267;BME280;24967;51.154;13.812;2023-09-30T04:47:35;100275.09;;;14.65;81.79
39267;BME280;24967;51.154;13.812;2023-09-30T04:50:05;100274.16;;;14.75;81.38
39267;BME280;24967;51.154;13.812;2023-09-30T04:52:32;100270.75;;;14.64;82.19
39267;BME280;24967;51.154;13.812;2023-09-30T04:55:00;100282.13;;;14.40;83.80
39267;BME280;24967;51.154;13.812;2023-09-30T04:57:26;100276.44;;;14.43;83.73
39267;BME280;24967;51.154;13.812;2023-09-30T04:59:53;100293.78;;;14.39;84.67
39267;BME280;24967;51.154;13.812;2023-09-30T05:02:20;100291.88;;;14.50;83.79
39267;BME280;24967;51.154;13.812;2023-09-30T05:04:46;100298.78;;;14.34;85.02
39267;BME280;24967;51.154;13.812;2023-09-30T05:07:15;100297.16;;;14.41;84.93
39267;BME280;24967;51.154;13.812;2023-09-30T05:09:41;100303.34;;;14.42;85.12
39267;BME280;24967;51.154;13.812;2023-09-30T05:12:08;100298.19;;;14.49;85.19
39267;BME280;24967;51.154;13.812;2023-09-30T05:14:36;100305.69;;;14.63;84.14
39267;BME280;24967;51.154;13.812;2023-09-30T05:17:04;100301.78;;;14.83;83.11
39267;BME280;24967;51.154;13.812;2023-09-30T05:19:30;100299.94;;;14.84;82.86
39267;BME280;24967;51.154;13.812;2023-09-30T05:21:57;100301.72;;;15.01;81.62
39267;BME280;24967;51.154;13.812;2023-09-30T05:24:27;100297.97;;;14.94;82.00
39267;BME280;24967;51.154;13.812;2023-09-30T05:26:54;100301.72;;;15.01;81.38
39267;BME280;24967;51.154;13.812;2023-09-30T05:29:20;100302.75;;;15.08;81.17
39267;BME280;24967;51.154;13.812;2023-09-30T05:31:47;100294.66;;;15.00;81.08
39267;BME280;24967;51.154;13.812;2023-09-30T05:34:14;100300.88;;;15.01;81.52
39267;BME280;24967;51.154;13.812;2023-09-30T05:36:40;100293.91;;;15.16;80.66
39267;BME280;24967;51.154;13.812;2023-09-30T05:39:07;100294.06;;;15.15;80.06
39267;BME280;24967;51.154;13.812;2023-09-30T05:41:37;100297.88;;;15.12;80.16
39267;BME280;24967;51.154;13.812;2023-09-30T05:44:04;100301.13;;;15.24;79.52
39267;BME280;24967;51.154;13.812;2023-09-30T05:46:32;100291.56;;;15.21;79.66
39267;BME280;24967;51.154;13.812;2023-09-30T05:48:59;100289.59;;;15.31;79.15
39267;BME280;24967;51.154;13.812;2023-09-30T05:51:27;100294.81;;;15.41;78.45
39267;BME280;24967;51.154;13.812;2023-09-30T05:53:53;100301.81;;;15.26;79.37
39267;BME280;24967;51.154;13.812;2023-09-30T05:56:20;100303.38;;;15.02;80.47
39267;BME280;24967;51.154;13.812;2023-09-30T05:58:47;100309.66;;;15.19;80.14
39267;BME280;24967;51.154;13.812;2023-09-30T06:01:14;100304.81;;;15.23;80.24
39267;BME280;24967;51.154;13.812;2023-09-30T06:03:45;100304.81;;;15.31;80.21
39267;BME280;24967;51.154;13.812;2023-09-30T06:06:12;100311.38;;;15.37;79.62
39267;BME280;24967;51.154;13.812;2023-09-30T06:08:39;100305.00;;;15.29;80.70
39267;BME280;24967;51.154;13.812;2023-09-30T06:11:05;100311.94;;;15.06;82.98
39267;BME280;24967;51.154;13.812;2023-09-30T06:13:32;100317.50;;;15.21;82.97
39267;BME280;24967;51.154;13.812;2023-09-30T06:16:00;100318.53;;;15.20;83.50
39267;BME280;24967;51.154;13.812;2023-09-30T06:18:27;100319.63;;;15.01;85.92
39267;BME280;24967;51.154;13.812;2023-09-30T06:20:54;100320.00;;;15.14;85.11
39267;BME280;24967;51.154;13.812;2023-09-30T06:23:20;100328.03;;;15.14;84.98
39267;BME280;24967;51.154;13.812;2023-09-30T06:25:46;100330.84;;;15.04;85.90
39267;BME280;24967;51.154;13.812;2023-09-30T06:28:13;100341.78;;;14.85;87.58
39267;BME280;24967;51.154;13.812;2023-09-30T06:30:40;100355.59;;;15.06;86.56
39267;BME280;24967;51.154;13.812;2023-09-30T06:33:09;100354.84;;;14.88;86.45
39267;BME280;24967;51.154;13.812;2023-09-30T06:35:38;100361.44;;;15.02;86.59
39267;BME280;24967;51.154;13.812;2023-09-30T06:38:15;100372.34;;;15.08;85.92
39267;BME280;24967;51.154;13.812;2023-09-30T06:40:42;100378.34;;;15.02;85.40
39267;BME280;24967;51.154;13.812;2023-09-30T06:43:09;100382.06;;;15.09;85.45
39267;BME280;24967;51.154;13.812;2023-09-30T06:45:35;100382.16;;;15.26;84.38
39267;BME280;24967;51.154;13.812;2023-09-30T06:48:06;100382.94;;;15.10;84.49
39267;BME280;24967;51.154;13.812;2023-09-30T06:50:39;100388.16;;;15.20;84.66
39267;BME280;24967;51.154;13.812;2023-09-30T06:53:06;100390.63;;;15.47;83.60
39267;BME280;24967;51.154;13.812;2023-09-30T06:55:36;100395.38;;;15.27;83.12
39267;BME280;24967;51.154;13.812;2023-09-30T06:58:03;100389.31;;;15.17;83.95
39267;BME280;24967;51.154;13.812;2023-09-30T07:00:32;100403.53;;;15.18;84.62
39267;BME280;24967;51.154;13.812;2023-09-30T07:02:59;100394.72;;;15.25;84.20
39267;BME280;24967;51.154;13.812;2023-09-30T07:05:26;100398.16;;;15.44;82.73
39267;BME280;24967;51.154;13.812;2023-09-30T07:07:55;100400.66;;;15.45;81.34
39267;BME280;24967;51.154;13.812;2023-09-30T07:10:21;100402.53;;;15.53;80.60
39267;BME280;24967;51.154;13.812;2023-09-30T07:12:48;100400.00;;;15.51;80.85
39267;BME280;24967;51.154;13.812;2023-09-30T07:15:14;100399.66;;;15.46;81.39
39267;BME280;24967;51.154;13.812;2023-09-30T07:17:41;100412.19;;;15.38;81.91
39267;BME280;24967;51.154;13.812;2023-09-30T07:20:09;100409.00;;;15.34;81.94
39267;BME280;24967;51.154;13.812;2023-09-30T07:22:35;100414.25;;;15.52;81.20
39267;BME280;24967;51.154;13.812;2023-09-30T07:25:04;100419.22;;;15.73;80.55
39267;BME280;24967;51.154;13.812;2023-09-30T07:27:30;100414.09;;;15.96;78.96
39267;BME280;24967;51.154;13.812;2023-09-30T07:29:57;100428.81;;;15.84;78.85
39267;BME280;24967;51.154;13.812;2023-09-30T07:32:23;100424.66;;;16.06;77.80
39267;BME280;24967;51.154;13.812;2023-09-30T07:34:50;100421.69;;;16.25;76.84
39267;BME280;24967;51.154;13.812;2023-09-30T07:37:17;100418.84;;;16.59;74.71
39267;BME280;24967;51.154;13.812;2023-09-30T07:39:45;100416.16;;;16.35;74.08
39267;BME280;24967;51.154;13.812;2023-09-30T07:42:13;100425.91;;;16.44;74.68
39267;BME280;24967;51.154;13.812;2023-09-30T07:44:40;100416.66;;;16.63;72.02
39267;BME280;24967;51.154;13.812;2023-09-30T07:47:06;100407.78;;;16.62;70.75
39267;BME280;24967;51.154;13.812;2023-09-30T07:49:34;100401.06;;;16.58;71.43
39267;BME280;24967;51.154;13.812;2023-09-30T07:52:00;100405.94;;;16.46;72.52
39267;BME280;24967;51.154;13.812;2023-09-30T07:54:27;100399.53;;;16.64;72.50
39267;BME280;24967;51.154;13.812;2023-09-30T07:56:53;100414.81;;;16.63;71.10
39267;BME280;24967;51.154;13.812;2023-09-30T07:59:21;100422.22;;;16.86;70.30
39267;BME280;24967;51.154;13.812;2023-09-30T08:01:48;100425.47;;;17.29;69.76
39267;BME280;24967;51.154;13.812;2023-09-30T08:04:14;100424.56;;;17.53;67.73
39267;BME280;24967;51.154;13.812;2023-09-30T08:06:41;100430.31;;;17.42;66.90
39267;BME280;24967;51.154;13.812;2023-09-30T08:09:07;100421.91;;;17.45;66.07
39267;BME280;24967;51.154;13.812;2023-09-30T08:11:36;100423.38;;;17.55;66.59
39267;BME280;24967;51.154;13.812;2023-09-30T08:14:03;100416.97;;;17.56;66.00
39267;BME280;24967;51.154;13.812;2023-09-30T08:16:33;100426.91;;;17.56;65.82
39267;BME280;24967;51.154;13.812;2023-09-30T08:18:59;100420.59;;;17.80;64.89
39267;BME280;24967;51.154;13.812;2023-09-30T08:21:26;100420.81;;;18.01;63.08
39267;BME280;24967;51.154;13.812;2023-09-30T08:23:52;100426.88;;;18.26;61.76
39267;BME280;24967;51.154;13.812;2023-09-30T08:26:19;100431.97;;;17.90;62.77
39267;BME280;24967;51.154;13.812;2023-09-30T08:28:45;100420.69;;;17.95;63.96
39267;BME280;24967;51.154;13.812;2023-09-30T08:31:12;100434.28;;;18.01;63.17
39267;BME280;24967;51.154;13.812;2023-09-30T08:33:40;100443.78;;;17.81;64.32
39267;BME280;24967;51.154;13.812;2023-09-30T08:36:10;100429.47;;;17.49;64.25
39267;BME280;24967;51.154;13.812;2023-09-30T08:38:38;100430.06;;;17.59;64.20
39267;BME280;24967;51.154;13.812;2023-09-30T08:41:05;100440.78;;;17.20;64.55
39267;BME280;24967;51.154;13.812;2023-09-30T08:43:36;100425.50;;;17.12;64.94
39267;BME280;24967;51.154;13.812;2023-09-30T08:46:04;100422.44;;;17.40;64.31
39267;BME280;24967;51.154;13.812;2023-09-30T08:48:32;100432.53;;;17.77;63.26
39267;BME280;24967;51.154;13.812;2023-09-30T08:51:01;100430.69;;;17.70;63.71
39267;BME280;24967;51.154;13.812;2023-09-30T08:53:29;100429.63;;;17.87;62.42
39267;BME280;24967;51.154;13.812;2023-09-30T08:55:56;100447.00;;;18.07;61.87
39267;BME280;24967;51.154;13.812;2023-09-30T08:58:26;100449.47;;;18.17;61.39
39267;BME280;24967;51.154;13.812;2023-09-30T09:00:53;100443.41;;;18.46;61.22
39267;BME280;24967;51.154;13.812;2023-09-30T09:03:20;100438.94;;;18.53;59.44
39267;BME280;24967;51.154;13.812;2023-09-30T09:05:47;100445.78;;;19.02;57.69
39267;BME280;24967;51.154;13.812;2023-09-30T09:08:20;100444.69;;;18.50;57.85
39267;BME280;24967;51.154;13.812;2023-09-30T09:10:54;100451.00;;;18.12;58.66
39267;BME280;24967;51.154;13.812;2023-09-30T09:13:22;100446.72;;;17.94;59.15
39267;BME280;24967;51.154;13.812;2023-09-30T09:15:49;100451.03;;;18.35;59.34
39267;BME280;24967;51.154;13.812;2023-09-30T09:18:31;100448.81;;;19.37;56.71
39267;BME280;24967;51.154;13.812;2023-09-30T09:21:08;100458.09;;;20.15;53.11
39267;BME280;24967;51.154;13.812;2023-09-30T09:23:40;100458.78;;;20.39;52.89
39267;BME280;24967;51.154;13.812;2023-09-30T09:26:06;100459.53;;;20.32;52.29
39267;BME280;24967;51.154;13.812;2023-09-30T09:28:34;100466.56;;;19.76;52.55
39267;BME280;24967;51.154;13.812;2023-09-30T09:31:01;100457.00;;;19.73;53.08
39267;BME280;24967;51.154;13.812;2023-09-30T09:33:35;100449.34;;;20.49;53.04
39267;BME280;24967;51.154;13.812;2023-09-30T09:36:02;100453.91;;;21.26;48.46
39267;BME280;24967;51.154;13.812;2023-09-30T09:38:44;100456.84;;;20.75;49.51
39267;BME280;24967;51.154;13.812;2023-09-30T09:44:26;100455.91;;;20.40;50.93
39267;BME280;24967;51.154;13.812;2023-09-30T09:46:53;100447.31;;;20.15;50.88
39267;BME280;24967;51.154;13.812;2023-09-30T09:49:21;100455.88;;;19.38;51.51
39267;BME280;24967;51.154;13.812;2023-09-30T09:51:48;100464.78;;;19.53;51.89
39267;BME280;24967;51.154;13.812;2023-09-30T09:54:17;100458.03;;;18.90;53.25
39267;BME280;24967;51.154;13.812;2023-09-30T09:56:44;100460.88;;;18.73;54.03
39267;BME280;24967;51.154;13.812;2023-09-30T09:59:12;100453.78;;;18.95;54.20
39267;BME280;24967;51.154;13.812;2023-09-30T10:01:39;100453.81;;;19.10;53.88
39267;BME280;24967;51.154;13.812;2023-09-30T10:04:06;100448.47;;;19.02;54.52
39267;BME280;24967;51.154;13.812;2023-09-30T10:06:34;100450.72;;;18.98;53.68
39267;BME280;24967;51.154;13.812;2023-09-30T10:09:05;100461.03;;;18.26;56.13
39267;BME280;24967;51.154;13.812;2023-09-30T10:11:35;100453.03;;;18.41;56.43
39267;BME280;24967;51.154;13.812;2023-09-30T10:14:02;100452.31;;;18.47;56.06
39267;BME280;24967;51.154;13.812;2023-09-30T10:16:48;100449.78;;;18.45;55.21
39267;BME280;24967;51.154;13.812;2023-09-30T10:19:16;100448.34;;;18.81;55.03
39267;BME280;24967;51.154;13.812;2023-09-30T10:22:21;100448.44;;;18.87;54.43
39267;BME280;24967;51.154;13.812;2023-09-30T10:24:48;100446.97;;;18.85;53.74
39267;BME280;24967;51.154;13.812;2023-09-30T10:27:30;100454.56;;;19.34;53.74
39267;BME280;24967;51.154;13.812;2023-09-30T10:29:58;100456.41;;;19.48;52.65
39267;BME280;24967;51.154;13.812;2023-09-30T10:35:42;100444.78;;;19.62;52.00
39267;BME280;24967;51.154;13.812;2023-09-30T10:38:38;100451.28;;;19.98;50.15
39267;BME280;24967;51.154;13.812;2023-09-30T10:41:08;100461.81;;;19.63;48.92
39267;BME280;24967;51.154;13.812;2023-09-30T10:43:36;100452.03;;;19.92;49.99
39267;BME280;24967;51.154;13.812;2023-09-30T10:46:04;100457.38;;;20.43;49.01
39267;BME280;24967;51.154;13.812;2023-09-30T10:48:35;100459.13;;;20.72;48.59
39267;BME280;24967;51.154;13.812;2023-09-30T10:51:20;100457.59;;;20.26;48.99
39267;BME280;24967;51.154;13.812;2023-09-30T10:53:48;100461.78;;;20.07;48.34
39267;BME280;24967;51.154;13.812;2023-09-30T10:56:17;100460.13;;;19.92;48.00
39267;BME280;24967;51.154;13.812;2023-09-30T10:58:46;100456.41;;;19.63;48.16
39267;BME280;24967;51.154;13.812;2023-09-30T11:01:15;100461.81;;;19.63;48.37
39267;BME280;24967;51.154;13.812;2023-09-30T11:03:42;100447.59;;;19.25;49.54
39267;BME280;24967;51.154;13.812;2023-09-30T11:06:11;100449.81;;;19.36;50.23
39267;BME280;24967;51.154;13.812;2023-09-30T11:08:40;100445.16;;;19.89;49.47
39267;BME280;24967;51.154;13.812;2023-09-30T11:11:10;100455.09;;;20.03;47.95
39267;BME280;24967;51.154;13.812;2023-09-30T11:13:36;100455.25;;;20.02;47.21
39267;BME280;24967;51.154;13.812;2023-09-30T11:16:05;100462.00;;;20.27;47.13
39267;BME280;24967;51.154;13.812;2023-09-30T11:18:33;100456.41;;;20.29;48.15
39267;BME280;24967;51.154;13.812;2023-09-30T11:21:07;100453.38;;;19.66;47.58
39267;BME280;24967;51.154;13.812;2023-09-30T11:23:35;100448.22;;;19.86;47.30
39267;BME280;24967;51.154;13.812;2023-09-30T11:26:02;100439.97;;;19.73;46.60
39267;BME280;24967;51.154;13.812;2023-09-30T11:28:36;100440.81;;;19.58;47.07
39267;BME280;24967;51.154;13.812;2023-09-30T11:31:03;100440.53;;;19.38;48.59
39267;BME280;24967;51.154;13.812;2023-09-30T11:33:32;100442.56;;;19.81;48.59
39267;BME280;24967;51.154;13.812;2023-09-30T11:36:01;100437.16;;;19.81;48.28
39267;BME280;24967;51.154;13.812;2023-09-30T11:38:29;100442.19;;;19.69;49.05
39267;BME280;24967;51.154;13.812;2023-09-30T11:41:00;100438.41;;;20.00;48.07
39267;BME280;24967;51.154;13.812;2023-09-30T11:43:29;100438.53;;;20.28;47.77
39267;BME280;24967;51.154;13.812;2023-09-30T11:46:06;100432.31;;;20.70;46.52
39267;BME280;24967;51.154;13.812;2023-09-30T11:48:35;100437.81;;;20.41;46.09
39267;BME280;24967;51.154;13.812;2023-09-30T11:51:02;100448.81;;;20.39;45.64
39267;BME280;24967;51.154;13.812;2023-09-30T11:53:29;100428.00;;;20.54;46.01
39267;BME280;24967;51.154;13.812;2023-09-30T11:55:57;100435.94;;;20.84;45.67
39267;BME280;24967;51.154;13.812;2023-09-30T11:58:25;100440.84;;;21.02;44.06
39267;BME280;24967;51.154;13.812;2023-09-30T12:00:53;100431.84;;;20.88;43.70
39267;BME280;24967;51.154;13.812;2023-09-30T12:03:20;100428.22;;;20.53;44.02
39267;BME280;24967;51.154;13.812;2023-09-30T12:05:48;100427.69;;;20.21;44.98
39267;BME280;24967;51.154;13.812;2023-09-30T12:08:15;100429.13;;;20.24;44.98
39267;BME280;24967;51.154;13.812;2023-09-30T12:10:41;100423.28;;;19.84;45.04
39267;BME280;24967;51.154;13.812;2023-09-30T12:13:09;100428.63;;;19.77;46.88
39267;BME280;24967;51.154;13.812;2023-09-30T12:15:37;100410.47;;;19.86;46.35
39267;BME280;24967;51.154;13.812;2023-09-30T12:18:04;100416.19;;;19.98;45.82
39267;BME280;24967;51.154;13.812;2023-09-30T12:20:31;100414.25;;;19.92;45.47
39267;BME280;24967;51.154;13.812;2023-09-30T12:22:59;100415.69;;;20.09;45.16
39267;BME280;24967;51.154;13.812;2023-09-30T12:25:26;100405.41;;;20.41;44.87
39267;BME280;24967;51.154;13.812;2023-09-30T12:27:53;100407.69;;;20.16;45.30
39267;BME280;24967;51.154;13.812;2023-09-30T12:30:20;100400.63;;;20.57;44.59
39267;BME280;24967;51.154;13.812;2023-09-30T12:32:47;100400.56;;;21.07;44.81
39267;BME280;24967;51.154;13.812;2023-09-30T12:35:13;100400.34;;;21.09;43.85
39267;BME280;24967;51.154;13.812;2023-09-30T12:37:40;100396.25;;;21.54;44.20
39267;BME280;24967;51.154;13.812;2023-09-30T12:40:10;100397.53;;;21.52;43.28
39267;BME280;24967;51.154;13.812;2023-09-30T12:42:39;100394.38;;;21.48;43.58
39267;BME280;24967;51.154;13.812;2023-09-30T12:45:06;100394.28;;;21.35;43.69
39267;BME280;24967;51.154;13.812;2023-09-30T12:47:33;100391.03;;;20.83;43.58
39267;BME280;24967;51.154;13.812;2023-09-30T12:49:59;100379.03;;;20.57;44.05
39267;BME280;24967;51.154;13.812;2023-09-30T12:52:26;100379.84;;;20.36;44.41
39267;BME280;24967;51.154;13.812;2023-09-30T12:54:52;100381.41;;;20.24;44.27